Chestnut Dale, North Carolina
Current Conditions -  °F | °C
As of 5:15 PM on Sunday 21 Dec 2014 (Local Time) from KTNB Reporting Station
Haze Haze  
Wind Chill: 36°   Ceiling: 800
Heat Index: 36°   Visibility: 4mi
Dew Point: 35°   Wind: 3mph
Humidity: 96%   Direction: 100°E
Pressure: 30.14"   Gusts: NA
Location:  36.0227°N, 81.9499°W
Report Text: KTNB 212215Z AUTO 10003KT 4SM BR OVC008 02/02 A3014 RMK AO2 T00210015
Loading
Personal Weather Stations






























Interactive Weather Map New forecast layout! Learn more

10-Day Weather Forecast

Advertisements
Track Severe Weather on mobile